sensor_id;sensor_type;location;lat;lon;timestamp;temperature;humidity
57664;DHT22;43493;53.098;6.064;2023-12-20T00:00:59;6.50;99.90
57664;DHT22;43493;53.098;6.064;2023-12-20T00:03:24;6.60;99.90
57664;DHT22;43493;53.098;6.064;2023-12-20T00:05:50;6.60;99.90
57664;DHT22;43493;53.098;6.064;2023-12-20T00:08:16;6.60;99.90
57664;DHT22;43493;53.098;6.064;2023-12-20T00:10:43;6.60;99.90
57664;DHT22;43493;53.098;6.064;2023-12-20T00:13:09;6.60;99.90
57664;DHT22;43493;53.098;6.064;2023-12-20T00:15:35;6.70;99.90
57664;DHT22;43493;53.098;6.064;2023-12-20T00:18:01;6.70;99.90
57664;DHT22;43493;53.098;6.064;2023-12-20T00:20:27;6.70;99.90
57664;DHT22;43493;53.098;6.064;2023-12-20T00:22:55;6.60;99.90
57664;DHT22;43493;53.098;6.064;2023-12-20T00:25:21;6.60;99.90
57664;DHT22;43493;53.098;6.064;2023-12-20T00:27:47;6.60;99.90
57664;DHT22;43493;53.098;6.064;2023-12-20T00:30:13;6.60;99.90
57664;DHT22;43493;53.098;6.064;2023-12-20T00:32:38;6.50;99.90
57664;DHT22;43493;53.098;6.064;2023-12-20T00:35:04;6.50;99.90
57664;DHT22;43493;53.098;6.064;2023-12-20T00:37:30;6.50;99.90
57664;DHT22;43493;53.098;6.064;2023-12-20T00:39:56;6.40;99.90
57664;DHT22;43493;53.098;6.064;2023-12-20T00:42:21;6.40;99.90
57664;DHT22;43493;53.098;6.064;2023-12-20T00:44:47;6.40;99.90
57664;DHT22;43493;53.098;6.064;2023-12-20T00:47:13;6.40;99.90
57664;DHT22;43493;53.098;6.064;2023-12-20T00:49:38;6.40;99.90
57664;DHT22;43493;53.098;6.064;2023-12-20T00:52:04;6.40;99.90
57664;DHT22;43493;53.098;6.064;2023-12-20T00:54:30;6.30;99.90
57664;DHT22;43493;53.098;6.064;2023-12-20T00:56:56;6.30;99.90
57664;DHT22;43493;53.098;6.064;2023-12-20T00:59:22;6.30;99.90
57664;DHT22;43493;53.098;6.064;2023-12-20T01:01:47;6.30;99.90
57664;DHT22;43493;53.098;6.064;2023-12-20T01:04:13;6.30;99.90
57664;DHT22;43493;53.098;6.064;2023-12-20T01:06:39;6.40;99.90
57664;DHT22;43493;53.098;6.064;2023-12-20T01:09:05;6.30;99.90
57664;DHT22;43493;53.098;6.064;2023-12-20T01:11:30;6.30;99.90
57664;DHT22;43493;53.098;6.064;2023-12-20T01:13:56;6.30;99.90
57664;DHT22;43493;53.098;6.064;2023-12-20T01:16:21;6.30;99.90
57664;DHT22;43493;53.098;6.064;2023-12-20T01:18:47;6.30;99.90
57664;DHT22;43493;53.098;6.064;2023-12-20T01:21:13;6.30;99.90
57664;DHT22;43493;53.098;6.064;2023-12-20T01:23:38;6.30;99.90
57664;DHT22;43493;53.098;6.064;2023-12-20T01:26:04;6.30;99.90
57664;DHT22;43493;53.098;6.064;2023-12-20T01:28:31;6.30;99.90
57664;DHT22;43493;53.098;6.064;2023-12-20T01:30:57;6.30;99.90
57664;DHT22;43493;53.098;6.064;2023-12-20T01:33:23;6.20;99.90
57664;DHT22;43493;53.098;6.064;2023-12-20T01:35:49;6.20;99.90
57664;DHT22;43493;53.098;6.064;2023-12-20T01:38:14;6.20;99.90
57664;DHT22;43493;53.098;6.064;2023-12-20T01:40:40;6.20;99.90
57664;DHT22;43493;53.098;6.064;2023-12-20T01:43:09;6.20;99.90
57664;DHT22;43493;53.098;6.064;2023-12-20T01:45:37;6.20;99.90
57664;DHT22;43493;53.098;6.064;2023-12-20T01:48:04;6.30;99.90
57664;DHT22;43493;53.098;6.064;2023-12-20T01:50:31;6.30;99.90
57664;DHT22;43493;53.098;6.064;2023-12-20T01:53:00;6.30;99.90
57664;DHT22;43493;53.098;6.064;2023-12-20T01:55:27;6.30;99.90
57664;DHT22;43493;53.098;6.064;2023-12-20T01:57:55;6.40;99.90
57664;DHT22;43493;53.098;6.064;2023-12-20T02:00:21;6.40;99.90
57664;DHT22;43493;53.098;6.064;2023-12-20T02:02:53;6.50;99.90
57664;DHT22;43493;53.098;6.064;2023-12-20T02:05:21;6.50;99.90
57664;DHT22;43493;53.098;6.064;2023-12-20T02:07:47;6.50;99.90
57664;DHT22;43493;53.098;6.064;2023-12-20T02:10:13;6.50;99.90
57664;DHT22;43493;53.098;6.064;2023-12-20T02:12:40;6.60;99.90
57664;DHT22;43493;53.098;6.064;2023-12-20T02:15:06;6.50;99.90
57664;DHT22;43493;53.098;6.064;2023-12-20T02:17:32;6.60;99.90
57664;DHT22;43493;53.098;6.064;2023-12-20T02:19:59;6.60;99.90
57664;DHT22;43493;53.098;6.064;2023-12-20T02:22:25;6.60;99.90
57664;DHT22;43493;53.098;6.064;2023-12-20T02:24:50;6.60;99.90
57664;DHT22;43493;53.098;6.064;2023-12-20T02:27:18;6.60;99.90
57664;DHT22;43493;53.098;6.064;2023-12-20T02:29:47;6.60;99.90
57664;DHT22;43493;53.098;6.064;2023-12-20T02:32:13;6.60;99.90
57664;DHT22;43493;53.098;6.064;2023-12-20T02:34:39;6.60;99.90
57664;DHT22;43493;53.098;6.064;2023-12-20T02:37:05;6.60;99.90
57664;DHT22;43493;53.098;6.064;2023-12-20T02:39:30;6.60;99.90
57664;DHT22;43493;53.098;6.064;2023-12-20T02:41:56;6.60;99.90
57664;DHT22;43493;53.098;6.064;2023-12-20T02:44:22;6.60;99.90
57664;DHT22;43493;53.098;6.064;2023-12-20T02:46:47;6.60;99.90
57664;DHT22;43493;53.098;6.064;2023-12-20T02:49:13;6.60;99.90
57664;DHT22;43493;53.098;6.064;2023-12-20T02:51:39;6.60;99.90
57664;DHT22;43493;53.098;6.064;2023-12-20T02:54:04;6.60;99.90
57664;DHT22;43493;53.098;6.064;2023-12-20T02:56:34;6.60;99.90
57664;DHT22;43493;53.098;6.064;2023-12-20T02:59:00;6.60;99.90
57664;DHT22;43493;53.098;6.064;2023-12-20T03:01:27;6.50;99.90
57664;DHT22;43493;53.098;6.064;2023-12-20T03:03:52;6.50;99.90
57664;DHT22;43493;53.098;6.064;2023-12-20T03:06:19;6.50;99.90
57664;DHT22;43493;53.098;6.064;2023-12-20T03:08:45;6.50;99.90
57664;DHT22;43493;53.098;6.064;2023-12-20T03:11:11;6.50;99.90
57664;DHT22;43493;53.098;6.064;2023-12-20T03:13:36;6.60;99.90
57664;DHT22;43493;53.098;6.064;2023-12-20T03:16:12;6.60;99.90
57664;DHT22;43493;53.098;6.064;2023-12-20T03:18:38;6.50;99.90
57664;DHT22;43493;53.098;6.064;2023-12-20T03:21:04;6.60;99.90
57664;DHT22;43493;53.098;6.064;2023-12-20T03:23:30;6.50;99.90
57664;DHT22;43493;53.098;6.064;2023-12-20T03:25:58;6.60;99.90
57664;DHT22;43493;53.098;6.064;2023-12-20T03:28:24;6.60;99.90
57664;DHT22;43493;53.098;6.064;2023-12-20T03:30:50;6.60;99.90
57664;DHT22;43493;53.098;6.064;2023-12-20T03:33:16;6.60;99.90
57664;DHT22;43493;53.098;6.064;2023-12-20T03:35:41;6.60;99.90
57664;DHT22;43493;53.098;6.064;2023-12-20T03:38:07;6.60;99.90
57664;DHT22;43493;53.098;6.064;2023-12-20T03:40:33;6.60;99.90
57664;DHT22;43493;53.098;6.064;2023-12-20T03:42:59;6.60;99.90
57664;DHT22;43493;53.098;6.064;2023-12-20T03:45:25;6.70;99.90
57664;DHT22;43493;53.098;6.064;2023-12-20T03:47:50;6.70;99.90
57664;DHT22;43493;53.098;6.064;2023-12-20T03:50:23;6.70;99.90
57664;DHT22;43493;53.098;6.064;2023-12-20T03:52:49;6.70;99.90
57664;DHT22;43493;53.098;6.064;2023-12-20T03:55:15;6.70;99.90
57664;DHT22;43493;53.098;6.064;2023-12-20T03:57:41;6.70;99.90
57664;DHT22;43493;53.098;6.064;2023-12-20T04:00:08;6.70;99.90
57664;DHT22;43493;53.098;6.064;2023-12-20T04:02:40;6.70;99.90
57664;DHT22;43493;53.098;6.064;2023-12-20T04:05:06;6.70;99.90
57664;DHT22;43493;53.098;6.064;2023-12-20T04:07:32;6.70;99.90
57664;DHT22;43493;53.098;6.064;2023-12-20T04:09:58;6.70;99.90
57664;DHT22;43493;53.098;6.064;2023-12-20T04:12:24;6.80;99.90
57664;DHT22;43493;53.098;6.064;2023-12-20T04:14:50;6.80;99.90
57664;DHT22;43493;53.098;6.064;2023-12-20T04:17:17;6.80;99.90
57664;DHT22;43493;53.098;6.064;2023-12-20T04:19:43;6.80;99.90
57664;DHT22;43493;53.098;6.064;2023-12-20T04:22:09;6.80;99.90
57664;DHT22;43493;53.098;6.064;2023-12-20T04:24:35;6.80;99.90
57664;DHT22;43493;53.098;6.064;2023-12-20T04:27:01;6.80;99.90
57664;DHT22;43493;53.098;6.064;2023-12-20T04:29:27;6.80;99.90
57664;DHT22;43493;53.098;6.064;2023-12-20T04:31:53;6.80;99.90
57664;DHT22;43493;53.098;6.064;2023-12-20T04:34:18;6.80;99.90
57664;DHT22;43493;53.098;6.064;2023-12-20T04:36:44;6.80;99.90
57664;DHT22;43493;53.098;6.064;2023-12-20T04:39:12;6.90;99.90
57664;DHT22;43493;53.098;6.064;2023-12-20T04:41:38;6.90;99.90
57664;DHT22;43493;53.098;6.064;2023-12-20T04:44:03;6.90;99.90
57664;DHT22;43493;53.098;6.064;2023-12-20T04:46:29;6.90;99.90
57664;DHT22;43493;53.098;6.064;2023-12-20T04:48:55;6.90;99.90
57664;DHT22;43493;53.098;6.064;2023-12-20T04:51:21;6.90;99.90
57664;DHT22;43493;53.098;6.064;2023-12-20T04:53:46;6.90;99.90
57664;DHT22;43493;53.098;6.064;2023-12-20T04:56:12;6.90;99.90
57664;DHT22;43493;53.098;6.064;2023-12-20T04:58:38;6.90;99.90
57664;DHT22;43493;53.098;6.064;2023-12-20T05:01:08;6.90;99.90
57664;DHT22;43493;53.098;6.064;2023-12-20T05:03:34;7.00;99.90
57664;DHT22;43493;53.098;6.064;2023-12-20T05:05:59;7.00;99.90
57664;DHT22;43493;53.098;6.064;2023-12-20T05:08:25;7.00;99.90
57664;DHT22;43493;53.098;6.064;2023-12-20T05:10:54;7.00;99.90
57664;DHT22;43493;53.098;6.064;2023-12-20T05:13:20;7.00;99.90
57664;DHT22;43493;53.098;6.064;2023-12-20T05:15:46;7.00;99.90
57664;DHT22;43493;53.098;6.064;2023-12-20T05:18:12;7.00;99.90
57664;DHT22;43493;53.098;6.064;2023-12-20T05:20:38;7.00;99.90
57664;DHT22;43493;53.098;6.064;2023-12-20T05:23:04;7.00;99.90
57664;DHT22;43493;53.098;6.064;2023-12-20T05:25:30;7.00;99.90
57664;DHT22;43493;53.098;6.064;2023-12-20T05:27:56;7.00;99.90
57664;DHT22;43493;53.098;6.064;2023-12-20T05:30:21;7.00;99.90
57664;DHT22;43493;53.098;6.064;2023-12-20T05:32:47;6.90;99.90
57664;DHT22;43493;53.098;6.064;2023-12-20T05:35:13;7.00;99.90
57664;DHT22;43493;53.098;6.064;2023-12-20T05:37:39;7.10;99.90
57664;DHT22;43493;53.098;6.064;2023-12-20T05:40:05;7.10;99.90
57664;DHT22;43493;53.098;6.064;2023-12-20T05:42:31;7.10;99.90
57664;DHT22;43493;53.098;6.064;2023-12-20T05:44:57;7.10;99.90
57664;DHT22;43493;53.098;6.064;2023-12-20T05:47:22;7.20;99.90
57664;DHT22;43493;53.098;6.064;2023-12-20T05:49:48;7.10;99.90
57664;DHT22;43493;53.098;6.064;2023-12-20T05:52:15;7.10;99.90
57664;DHT22;43493;53.098;6.064;2023-12-20T05:54:41;7.20;99.90
57664;DHT22;43493;53.098;6.064;2023-12-20T05:57:07;7.20;99.90
57664;DHT22;43493;53.098;6.064;2023-12-20T05:59:32;7.20;99.90
57664;DHT22;43493;53.098;6.064;2023-12-20T06:01:58;7.20;99.90
57664;DHT22;43493;53.098;6.064;2023-12-20T06:04:24;7.20;99.90
57664;DHT22;43493;53.098;6.064;2023-12-20T06:06:49;7.20;99.90
57664;DHT22;43493;53.098;6.064;2023-12-20T06:09:15;7.20;99.90
57664;DHT22;43493;53.098;6.064;2023-12-20T06:11:41;7.30;99.90
57664;DHT22;43493;53.098;6.064;2023-12-20T06:14:06;7.20;99.90
57664;DHT22;43493;53.098;6.064;2023-12-20T06:16:32;7.30;99.90
57664;DHT22;43493;53.098;6.064;2023-12-20T06:18:58;7.30;99.90
57664;DHT22;43493;53.098;6.064;2023-12-20T06:21:23;7.30;99.90
57664;DHT22;43493;53.098;6.064;2023-12-20T06:23:49;7.30;99.90
57664;DHT22;43493;53.098;6.064;2023-12-20T06:26:15;7.30;99.90
57664;DHT22;43493;53.098;6.064;2023-12-20T06:28:41;7.30;99.90
57664;DHT22;43493;53.098;6.064;2023-12-20T06:31:06;7.30;99.90
57664;DHT22;43493;53.098;6.064;2023-12-20T06:33:32;7.40;99.90
57664;DHT22;43493;53.098;6.064;2023-12-20T06:35:58;7.40;99.90
57664;DHT22;43493;53.098;6.064;2023-12-20T06:38:24;7.40;99.90
57664;DHT22;43493;53.098;6.064;2023-12-20T06:40:49;7.40;99.90
57664;DHT22;43493;53.098;6.064;2023-12-20T06:43:15;7.40;99.90
57664;DHT22;43493;53.098;6.064;2023-12-20T06:45:41;7.40;99.90
57664;DHT22;43493;53.098;6.064;2023-12-20T06:48:07;7.40;99.90
57664;DHT22;43493;53.098;6.064;2023-12-20T06:50:33;7.40;99.90
57664;DHT22;43493;53.098;6.064;2023-12-20T06:52:58;7.40;99.90
57664;DHT22;43493;53.098;6.064;2023-12-20T06:55:24;7.40;99.90
57664;DHT22;43493;53.098;6.064;2023-12-20T06:57:50;7.40;99.90
57664;DHT22;43493;53.098;6.064;2023-12-20T07:00:16;7.40;99.90
57664;DHT22;43493;53.098;6.064;2023-12-20T07:02:42;7.50;99.90
57664;DHT22;43493;53.098;6.064;2023-12-20T07:05:09;7.40;99.90
57664;DHT22;43493;53.098;6.064;2023-12-20T07:07:34;7.40;99.90
57664;DHT22;43493;53.098;6.064;2023-12-20T07:10:00;7.40;99.90
57664;DHT22;43493;53.098;6.064;2023-12-20T07:12:26;7.50;99.90
57664;DHT22;43493;53.098;6.064;2023-12-20T07:14:51;7.40;99.90
57664;DHT22;43493;53.098;6.064;2023-12-20T07:17:17;7.50;99.90
57664;DHT22;43493;53.098;6.064;2023-12-20T07:19:43;7.50;99.90
57664;DHT22;43493;53.098;6.064;2023-12-20T07:22:08;7.50;99.90
57664;DHT22;43493;53.098;6.064;2023-12-20T07:24:34;7.50;99.90
57664;DHT22;43493;53.098;6.064;2023-12-20T07:27:00;7.50;99.90
57664;DHT22;43493;53.098;6.064;2023-12-20T07:29:26;7.50;99.90
57664;DHT22;43493;53.098;6.064;2023-12-20T07:31:53;7.50;99.90
57664;DHT22;43493;53.098;6.064;2023-12-20T07:34:20;7.50;99.90
57664;DHT22;43493;53.098;6.064;2023-12-20T07:36:46;7.40;99.90
57664;DHT22;43493;53.098;6.064;2023-12-20T07:39:12;7.40;99.90
57664;DHT22;43493;53.098;6.064;2023-12-20T07:41:38;7.40;99.90
57664;DHT22;43493;53.098;6.064;2023-12-20T07:44:05;7.40;99.90
57664;DHT22;43493;53.098;6.064;2023-12-20T07:46:30;7.40;99.90
57664;DHT22;43493;53.098;6.064;2023-12-20T07:48:56;7.40;99.90
57664;DHT22;43493;53.098;6.064;2023-12-20T07:51:22;7.50;99.90
57664;DHT22;43493;53.098;6.064;2023-12-20T07:53:47;7.50;99.90
57664;DHT22;43493;53.098;6.064;2023-12-20T07:56:17;7.50;99.90
57664;DHT22;43493;53.098;6.064;2023-12-20T07:58:44;7.50;99.90
57664;DHT22;43493;53.098;6.064;2023-12-20T08:01:11;7.50;99.90
57664;DHT22;43493;53.098;6.064;2023-12-20T08:03:37;7.60;99.90
57664;DHT22;43493;53.098;6.064;2023-12-20T08:06:03;7.60;99.90
57664;DHT22;43493;53.098;6.064;2023-12-20T08:08:29;7.60;99.90
57664;DHT22;43493;53.098;6.064;2023-12-20T08:10:54;7.60;99.90
57664;DHT22;43493;53.098;6.064;2023-12-20T08:13:20;7.60;99.90
57664;DHT22;43493;53.098;6.064;2023-12-20T08:15:50;7.60;99.90
57664;DHT22;43493;53.098;6.064;2023-12-20T08:18:16;7.50;99.90
57664;DHT22;43493;53.098;6.064;2023-12-20T08:20:41;7.50;99.90
57664;DHT22;43493;53.098;6.064;2023-12-20T08:23:07;7.40;99.90
57664;DHT22;43493;53.098;6.064;2023-12-20T08:25:33;7.40;99.90
57664;DHT22;43493;53.098;6.064;2023-12-20T08:27:58;7.40;99.90
57664;DHT22;43493;53.098;6.064;2023-12-20T08:30:24;7.30;99.90
57664;DHT22;43493;53.098;6.064;2023-12-20T08:32:50;7.30;99.90
57664;DHT22;43493;53.098;6.064;2023-12-20T08:35:16;7.40;99.90
57664;DHT22;43493;53.098;6.064;2023-12-20T08:37:43;7.40;99.90
57664;DHT22;43493;53.098;6.064;2023-12-20T08:40:09;7.40;99.90
57664;DHT22;43493;53.098;6.064;2023-12-20T08:42:35;7.50;99.90
57664;DHT22;43493;53.098;6.064;2023-12-20T08:45:01;7.50;99.90
57664;DHT22;43493;53.098;6.064;2023-12-20T08:47:27;7.50;99.90
57664;DHT22;43493;53.098;6.064;2023-12-20T08:49:53;7.50;99.90
57664;DHT22;43493;53.098;6.064;2023-12-20T08:52:22;7.60;99.90
57664;DHT22;43493;53.098;6.064;2023-12-20T08:54:50;7.60;99.90
57664;DHT22;43493;53.098;6.064;2023-12-20T08:57:19;7.60;99.90
57664;DHT22;43493;53.098;6.064;2023-12-20T08:59:46;7.60;99.90
57664;DHT22;43493;53.098;6.064;2023-12-20T09:02:12;7.70;99.90
57664;DHT22;43493;53.098;6.064;2023-12-20T09:04:38;7.70;99.90
57664;DHT22;43493;53.098;6.064;2023-12-20T09:07:04;7.70;99.90
57664;DHT22;43493;53.098;6.064;2023-12-20T09:09:30;7.70;99.90
57664;DHT22;43493;53.098;6.064;2023-12-20T09:11:57;7.80;99.90
57664;DHT22;43493;53.098;6.064;2023-12-20T09:14:23;7.80;99.90
57664;DHT22;43493;53.098;6.064;2023-12-20T09:16:49;7.60;99.90
57664;DHT22;43493;53.098;6.064;2023-12-20T09:19:17;7.40;99.90
57664;DHT22;43493;53.098;6.064;2023-12-20T09:21:43;7.30;99.90
57664;DHT22;43493;53.098;6.064;2023-12-20T09:24:09;7.20;99.90
57664;DHT22;43493;53.098;6.064;2023-12-20T09:26:35;7.20;99.90
57664;DHT22;43493;53.098;6.064;2023-12-20T09:29:00;7.10;99.90
57664;DHT22;43493;53.098;6.064;2023-12-20T09:31:26;7.10;99.90
57664;DHT22;43493;53.098;6.064;2023-12-20T09:33:52;7.00;99.90
57664;DHT22;43493;53.098;6.064;2023-12-20T09:36:18;7.00;99.90
57664;DHT22;43493;53.098;6.064;2023-12-20T09:38:43;7.00;99.90
57664;DHT22;43493;53.098;6.064;2023-12-20T09:41:09;6.90;99.90
57664;DHT22;43493;53.098;6.064;2023-12-20T09:43:38;6.90;99.90
57664;DHT22;43493;53.098;6.064;2023-12-20T09:46:06;6.90;99.90
57664;DHT22;43493;53.098;6.064;2023-12-20T09:48:33;6.80;99.90
57664;DHT22;43493;53.098;6.064;2023-12-20T09:50:59;6.80;99.90
57664;DHT22;43493;53.098;6.064;2023-12-20T09:53:25;6.80;99.90
57664;DHT22;43493;53.098;6.064;2023-12-20T09:55:58;6.80;99.90
57664;DHT22;43493;53.098;6.064;2023-12-20T09:58:25;6.80;99.90
57664;DHT22;43493;53.098;6.064;2023-12-20T10:00:51;6.80;99.90
57664;DHT22;43493;53.098;6.064;2023-12-20T10:03:24;6.90;99.90
57664;DHT22;43493;53.098;6.064;2023-12-20T10:05:54;6.90;99.90
57664;DHT22;43493;53.098;6.064;2023-12-20T10:08:22;6.90;99.90
57664;DHT22;43493;53.098;6.064;2023-12-20T10:10:48;6.90;99.90
57664;DHT22;43493;53.098;6.064;2023-12-20T10:13:15;6.90;99.90
57664;DHT22;43493;53.098;6.064;2023-12-20T10:15:41;6.90;99.90
57664;DHT22;43493;53.098;6.064;2023-12-20T10:18:07;6.90;99.90
57664;DHT22;43493;53.098;6.064;2023-12-20T10:20:33;6.90;99.90
57664;DHT22;43493;53.098;6.064;2023-12-20T10:22:59;6.90;99.90
57664;DHT22;43493;53.098;6.064;2023-12-20T10:25:26;7.00;99.90
57664;DHT22;43493;53.098;6.064;2023-12-20T10:28:15;7.00;99.90
57664;DHT22;43493;53.098;6.064;2023-12-20T10:30:45;7.10;99.90
57664;DHT22;43493;53.098;6.064;2023-12-20T10:33:11;7.10;99.90
57664;DHT22;43493;53.098;6.064;2023-12-20T10:35:38;7.20;99.90
57664;DHT22;43493;53.098;6.064;2023-12-20T10:38:05;7.10;99.90
57664;DHT22;43493;53.098;6.064;2023-12-20T10:40:34;7.20;99.90
57664;DHT22;43493;53.098;6.064;2023-12-20T10:43:01;7.20;99.90
57664;DHT22;43493;53.098;6.064;2023-12-20T10:45:27;7.20;99.90
57664;DHT22;43493;53.098;6.064;2023-12-20T10:47:53;7.20;99.90
57664;DHT22;43493;53.098;6.064;2023-12-20T10:50:19;7.20;99.90
57664;DHT22;43493;53.098;6.064;2023-12-20T10:52:47;7.30;99.90
57664;DHT22;43493;53.098;6.064;2023-12-20T10:55:13;7.20;99.90
57664;DHT22;43493;53.098;6.064;2023-12-20T10:57:39;7.20;99.90
57664;DHT22;43493;53.098;6.064;2023-12-20T11:00:08;7.20;99.90
57664;DHT22;43493;53.098;6.064;2023-12-20T11:02:39;7.30;99.90
57664;DHT22;43493;53.098;6.064;2023-12-20T11:08:14;7.30;99.90
57664;DHT22;43493;53.098;6.064;2023-12-20T11:10:55;7.30;99.90
57664;DHT22;43493;53.098;6.064;2023-12-20T11:13:59;7.30;99.90
57664;DHT22;43493;53.098;6.064;2023-12-20T11:16:25;7.40;99.90
57664;DHT22;43493;53.098;6.064;2023-12-20T11:18:51;7.40;99.90
57664;DHT22;43493;53.098;6.064;2023-12-20T11:21:18;7.40;99.90
57664;DHT22;43493;53.098;6.064;2023-12-20T11:23:43;7.40;99.90
57664;DHT22;43493;53.098;6.064;2023-12-20T11:26:09;7.50;99.90
57664;DHT22;43493;53.098;6.064;2023-12-20T11:28:35;7.50;99.90
57664;DHT22;43493;53.098;6.064;2023-12-20T11:31:02;7.50;99.90
57664;DHT22;43493;53.098;6.064;2023-12-20T11:35:57;7.60;99.90
57664;DHT22;43493;53.098;6.064;2023-12-20T11:38:25;7.60;99.90
57664;DHT22;43493;53.098;6.064;2023-12-20T11:40:53;7.70;99.90
57664;DHT22;43493;53.098;6.064;2023-12-20T11:43:36;7.70;99.90
57664;DHT22;43493;53.098;6.064;2023-12-20T11:46:09;7.70;99.90
57664;DHT22;43493;53.098;6.064;2023-12-20T11:48:37;7.70;99.90
57664;DHT22;43493;53.098;6.064;2023-12-20T11:51:09;7.70;99.90
57664;DHT22;43493;53.098;6.064;2023-12-20T11:53:34;7.80;99.90
57664;DHT22;43493;53.098;6.064;2023-12-20T11:56:03;7.80;99.90
57664;DHT22;43493;53.098;6.064;2023-12-20T11:58:29;7.70;99.90
57664;DHT22;43493;53.098;6.064;2023-12-20T12:00:56;7.70;99.90
57664;DHT22;43493;53.098;6.064;2023-12-20T12:03:22;7.80;99.90
57664;DHT22;43493;53.098;6.064;2023-12-20T12:05:50;7.70;99.90
57664;DHT22;43493;53.098;6.064;2023-12-20T12:08:18;7.70;99.90
57664;DHT22;43493;53.098;6.064;2023-12-20T12:10:44;7.70;99.90
57664;DHT22;43493;53.098;6.064;2023-12-20T12:13:10;7.70;99.90
57664;DHT22;43493;53.098;6.064;2023-12-20T12:15:37;7.80;99.90
57664;DHT22;43493;53.098;6.064;2023-12-20T12:18:03;7.80;99.90
57664;DHT22;43493;53.098;6.064;2023-12-20T12:20:29;7.80;99.90
57664;DHT22;43493;53.098;6.064;2023-12-20T12:23:04;7.80;99.90
57664;DHT22;43493;53.098;6.064;2023-12-20T12:25:31;7.70;99.90
57664;DHT22;43493;53.098;6.064;2023-12-20T12:27:58;7.70;99.90
57664;DHT22;43493;53.098;6.064;2023-12-20T12:30:24;7.70;99.90
57664;DHT22;43493;53.098;6.064;2023-12-20T12:32:51;7.70;99.90
57664;DHT22;43493;53.098;6.064;2023-12-20T12:35:17;7.70;99.90
57664;DHT22;43493;53.098;6.064;2023-12-20T12:37:43;7.70;99.90
57664;DHT22;43493;53.098;6.064;2023-12-20T12:40:15;7.70;99.90
57664;DHT22;43493;53.098;6.064;2023-12-20T12:42:43;7.60;99.90
57664;DHT22;43493;53.098;6.064;2023-12-20T12:45:09;7.60;99.90
57664;DHT22;43493;53.098;6.064;2023-12-20T12:47:35;7.50;99.90
57664;DHT22;43493;53.098;6.064;2023-12-20T12:50:01;7.50;99.90
57664;DHT22;43493;53.098;6.064;2023-12-20T12:52:27;7.40;99.90
57664;DHT22;43493;53.098;6.064;2023-12-20T12:54:53;7.40;99.90
57664;DHT22;43493;53.098;6.064;2023-12-20T12:57:19;7.30;99.90
57664;DHT22;43493;53.098;6.064;2023-12-20T12:59:45;7.30;99.90
57664;DHT22;43493;53.098;6.064;2023-12-20T13:02:12;7.30;99.90
57664;DHT22;43493;53.098;6.064;2023-12-20T13:04:41;7.30;99.90
57664;DHT22;43493;53.098;6.064;2023-12-20T13:07:08;7.30;99.90
57664;DHT22;43493;53.098;6.064;2023-12-20T13:09:38;7.30;99.90
57664;DHT22;43493;53.098;6.064;2023-12-20T13:12:07;7.20;99.90
57664;DHT22;43493;53.098;6.064;2023-12-20T13:14:34;7.20;99.90
57664;DHT22;43493;53.098;6.064;2023-12-20T13:17:01;7.20;99.90
57664;DHT22;43493;53.098;6.064;2023-12-20T13:19:27;7.20;99.90
57664;DHT22;43493;53.098;6.064;2023-12-20T13:21:53;7.20;99.90
57664;DHT22;43493;53.098;6.064;2023-12-20T13:24:19;7.10;99.90
57664;DHT22;43493;53.098;6.064;2023-12-20T13:26:44;7.10;99.90
57664;DHT22;43493;53.098;6.064;2023-12-20T13:29:10;7.10;99.90
57664;DHT22;43493;53.098;6.064;2023-12-20T13:31:36;7.10;99.90
57664;DHT22;43493;53.098;6.064;2023-12-20T13:34:02;7.10;99.90
57664;DHT22;43493;53.098;6.064;2023-12-20T13:36:28;7.10;99.90
57664;DHT22;43493;53.098;6.064;2023-12-20T13:38:54;7.10;99.90
57664;DHT22;43493;53.098;6.064;2023-12-20T13:41:20;7.10;99.90
57664;DHT22;43493;53.098;6.064;2023-12-20T13:43:45;7.10;99.90
57664;DHT22;43493;53.098;6.064;2023-12-20T13:46:11;7.10;99.90
57664;DHT22;43493;53.098;6.064;2023-12-20T13:48:37;7.10;99.90
57664;DHT22;43493;53.098;6.064;2023-12-20T13:51:03;7.10;99.90
57664;DHT22;43493;53.098;6.064;2023-12-20T13:53:29;7.10;99.90
57664;DHT22;43493;53.098;6.064;2023-12-20T13:55:55;7.10;99.90
57664;DHT22;43493;53.098;6.064;2023-12-20T13:58:20;7.10;99.90
57664;DHT22;43493;53.098;6.064;2023-12-20T14:00:46;7.20;99.90
57664;DHT22;43493;53.098;6.064;2023-12-20T14:03:12;7.10;99.90
57664;DHT22;43493;53.098;6.064;2023-12-20T14:05:37;7.10;99.90
57664;DHT22;43493;53.098;6.064;2023-12-20T14:08:03;7.10;99.90
57664;DHT22;43493;53.098;6.064;2023-12-20T14:10:29;7.10;99.90
57664;DHT22;43493;53.098;6.064;2023-12-20T14:12:55;7.10;99.90
57664;DHT22;43493;53.098;6.064;2023-12-20T14:15:21;7.10;99.90
57664;DHT22;43493;53.098;6.064;2023-12-20T14:17:50;7.10;99.90
57664;DHT22;43493;53.098;6.064;2023-12-20T14:20:16;7.10;99.90
57664;DHT22;43493;53.098;6.064;2023-12-20T14:22:43;7.10;99.90
57664;DHT22;43493;53.098;6.064;2023-12-20T14:25:13;7.10;99.90
57664;DHT22;43493;53.098;6.064;2023-12-20T14:27:40;7.10;99.90
57664;DHT22;43493;53.098;6.064;2023-12-20T14:30:06;7.10;99.90
57664;DHT22;43493;53.098;6.064;2023-12-20T14:32:35;7.10;99.90
57664;DHT22;43493;53.098;6.064;2023-12-20T14:35:05;7.10;99.90
57664;DHT22;43493;53.098;6.064;2023-12-20T14:37:30;7.10;99.90
57664;DHT22;43493;53.098;6.064;2023-12-20T14:39:56;7.10;99.90
57664;DHT22;43493;53.098;6.064;2023-12-20T14:42:22;7.10;99.90
57664;DHT22;43493;53.098;6.064;2023-12-20T14:44:48;7.10;99.90
57664;DHT22;43493;53.098;6.064;2023-12-20T14:47:13;7.10;99.90
57664;DHT22;43493;53.098;6.064;2023-12-20T14:49:41;7.10;99.90
57664;DHT22;43493;53.098;6.064;2023-12-20T14:52:07;7.10;99.90
57664;DHT22;43493;53.098;6.064;2023-12-20T14:54:33;7.10;99.90
57664;DHT22;43493;53.098;6.064;2023-12-20T14:56:59;7.10;99.90
57664;DHT22;43493;53.098;6.064;2023-12-20T14:59:25;7.10;99.90
57664;DHT22;43493;53.098;6.064;2023-12-20T15:01:50;7.10;99.90
57664;DHT22;43493;53.098;6.064;2023-12-20T15:04:16;7.10;99.90
57664;DHT22;43493;53.098;6.064;2023-12-20T15:06:42;7.10;99.90
57664;DHT22;43493;53.098;6.064;2023-12-20T15:09:09;7.10;99.90
57664;DHT22;43493;53.098;6.064;2023-12-20T15:11:35;7.10;99.90
57664;DHT22;43493;53.098;6.064;2023-12-20T15:14:01;7.10;99.90
57664;DHT22;43493;53.098;6.064;2023-12-20T15:16:27;7.10;99.90
57664;DHT22;43493;53.098;6.064;2023-12-20T15:18:53;7.10;99.90
57664;DHT22;43493;53.098;6.064;2023-12-20T15:21:19;7.10;99.90
57664;DHT22;43493;53.098;6.064;2023-12-20T15:23:45;7.10;99.90
57664;DHT22;43493;53.098;6.064;2023-12-20T15:26:20;7.20;99.90
57664;DHT22;43493;53.098;6.064;2023-12-20T15:28:45;7.20;99.90
57664;DHT22;43493;53.098;6.064;2023-12-20T15:31:11;7.20;99.90
57664;DHT22;43493;53.098;6.064;2023-12-20T15:33:38;7.30;99.90
57664;DHT22;43493;53.098;6.064;2023-12-20T15:36:05;7.30;99.90
57664;DHT22;43493;53.098;6.064;2023-12-20T15:38:31;7.30;99.90
57664;DHT22;43493;53.098;6.064;2023-12-20T15:40:56;7.40;99.90
57664;DHT22;43493;53.098;6.064;2023-12-20T15:43:22;7.40;99.90
57664;DHT22;43493;53.098;6.064;2023-12-20T15:45:48;7.40;99.90